Terminal Aerodrome Forecast
Issued by NWS Springfield, MO

Home | Current Version | Previous Version | Text Only | Print | Product List | Glossary On
Versions: 1 2 3 4 5 6 7 8 9 10 11 12 13 14 15 16 17 18 19 20 21 22 23 24 25 26 27 28 29
789
FTUS43 KSGF 160226 AAB
TAFSGF
TAF AMD
KSGF 160226Z 1602/1624 15005KT 4SM BR OVC003
     FM160800 14012KT 2SM -SHRA BR OVC003
     FM161500 15015G24KT 3SM -SHRA BR VCTS BKN007 OVC040CB
     FM161900 18013G22KT P6SM BKN015 OVC040=

USA.gov is the U.S. government's official web portal to all federal, state and local government web resources and services.